sensor_id;sensor_type;location;lat;lon;timestamp;P1;durP1;ratioP1;P2;durP2;ratioP2
44536;SDS011;30245;51.966;6.292;2023-02-19T00:01:15;19.55;;;11.13;;
44536;SDS011;30245;51.966;6.292;2023-02-19T00:03:42;19.13;;;11.43;;
44536;SDS011;30245;51.966;6.292;2023-02-19T00:06:11;25.07;;;13.80;;
44536;SDS011;30245;51.966;6.292;2023-02-19T00:08:37;25.77;;;13.90;;
44536;SDS011;30245;51.966;6.292;2023-02-19T00:11:07;26.90;;;11.90;;
44536;SDS011;30245;51.966;6.292;2023-02-19T00:13:38;20.13;;;10.33;;
44536;SDS011;30245;51.966;6.292;2023-02-19T00:16:08;24.90;;;12.47;;
44536;SDS011;30245;51.966;6.292;2023-02-19T00:18:36;20.23;;;9.40;;
44536;SDS011;30245;51.966;6.292;2023-02-19T00:21:02;17.80;;;10.37;;
44536;SDS011;30245;51.966;6.292;2023-02-19T00:23:28;16.73;;;10.00;;
44536;SDS011;30245;51.966;6.292;2023-02-19T00:25:54;19.33;;;9.63;;
44536;SDS011;30245;51.966;6.292;2023-02-19T00:28:20;16.30;;;10.50;;
44536;SDS011;30245;51.966;6.292;2023-02-19T00:30:45;14.70;;;9.80;;
44536;SDS011;30245;51.966;6.292;2023-02-19T00:33:11;14.40;;;9.93;;
44536;SDS011;30245;51.966;6.292;2023-02-19T00:35:37;20.80;;;10.77;;
44536;SDS011;30245;51.966;6.292;2023-02-19T00:38:03;16.73;;;11.50;;
44536;SDS011;30245;51.966;6.292;2023-02-19T00:40:29;18.30;;;12.77;;
44536;SDS011;30245;51.966;6.292;2023-02-19T00:42:54;19.50;;;11.40;;
44536;SDS011;30245;51.966;6.292;2023-02-19T00:45:20;24.77;;;12.23;;
44536;SDS011;30245;51.966;6.292;2023-02-19T00:47:46;24.50;;;14.33;;
44536;SDS011;30245;51.966;6.292;2023-02-19T00:50:11;22.17;;;11.07;;
44536;SDS011;30245;51.966;6.292;2023-02-19T00:52:37;20.93;;;11.27;;
44536;SDS011;30245;51.966;6.292;2023-02-19T00:55:03;23.17;;;12.03;;
44536;SDS011;30245;51.966;6.292;2023-02-19T00:57:29;24.40;;;12.57;;
44536;SDS011;30245;51.966;6.292;2023-02-19T00:59:54;17.63;;;10.97;;
44536;SDS011;30245;51.966;6.292;2023-02-19T01:02:20;23.57;;;13.43;;
44536;SDS011;30245;51.966;6.292;2023-02-19T01:04:45;20.23;;;11.27;;
44536;SDS011;30245;51.966;6.292;2023-02-19T01:07:11;18.27;;;12.60;;
44536;SDS011;30245;51.966;6.292;2023-02-19T01:09:36;24.00;;;13.90;;
44536;SDS011;30245;51.966;6.292;2023-02-19T01:12:03;16.50;;;11.50;;
44536;SDS011;30245;51.966;6.292;2023-02-19T01:14:29;23.13;;;11.97;;
44536;SDS011;30245;51.966;6.292;2023-02-19T01:16:55;23.07;;;12.93;;
44536;SDS011;30245;51.966;6.292;2023-02-19T01:19:20;16.83;;;10.93;;
44536;SDS011;30245;51.966;6.292;2023-02-19T01:21:46;16.87;;;11.60;;
44536;SDS011;30245;51.966;6.292;2023-02-19T01:24:11;21.87;;;12.50;;
44536;SDS011;30245;51.966;6.292;2023-02-19T01:26:37;19.53;;;13.10;;
44536;SDS011;30245;51.966;6.292;2023-02-19T01:29:03;24.87;;;13.07;;
44536;SDS011;30245;51.966;6.292;2023-02-19T01:31:29;22.37;;;12.50;;
44536;SDS011;30245;51.966;6.292;2023-02-19T01:33:55;19.87;;;12.63;;
44536;SDS011;30245;51.966;6.292;2023-02-19T01:36:23;14.05;;;10.85;;
44536;SDS011;30245;51.966;6.292;2023-02-19T01:38:50;14.90;;;11.47;;
44536;SDS011;30245;51.966;6.292;2023-02-19T01:41:16;20.80;;;13.33;;
44536;SDS011;30245;51.966;6.292;2023-02-19T01:44:03;16.38;;;11.07;;
44536;SDS011;30245;51.966;6.292;2023-02-19T01:46:35;18.40;;;12.17;;
44536;SDS011;30245;51.966;6.292;2023-02-19T01:49:13;20.33;;;13.13;;
44536;SDS011;30245;51.966;6.292;2023-02-19T01:51:55;19.48;;;11.90;;
44536;SDS011;30245;51.966;6.292;2023-02-19T01:54:22;20.03;;;12.30;;
44536;SDS011;30245;51.966;6.292;2023-02-19T01:56:51;24.33;;;14.57;;
44536;SDS011;30245;51.966;6.292;2023-02-19T01:59:17;20.40;;;13.37;;
44536;SDS011;30245;51.966;6.292;2023-02-19T02:01:43;25.07;;;14.30;;
44536;SDS011;30245;51.966;6.292;2023-02-19T02:04:09;22.60;;;14.13;;
44536;SDS011;30245;51.966;6.292;2023-02-19T02:06:45;19.08;;;13.32;;
44536;SDS011;30245;51.966;6.292;2023-02-19T02:09:15;19.17;;;12.17;;
44536;SDS011;30245;51.966;6.292;2023-02-19T02:12:00;20.23;;;11.70;;
44536;SDS011;30245;51.966;6.292;2023-02-19T02:14:26;18.67;;;11.40;;
44536;SDS011;30245;51.966;6.292;2023-02-19T02:22:41;20.57;;;13.83;;
44536;SDS011;30245;51.966;6.292;2023-02-19T02:31:18;15.93;;;10.67;;
44536;SDS011;30245;51.966;6.292;2023-02-19T02:34:03;18.30;;;11.60;;
44536;SDS011;30245;51.966;6.292;2023-02-19T02:36:41;18.67;;;12.27;;
44536;SDS011;30245;51.966;6.292;2023-02-19T02:39:11;25.83;;;12.83;;
44536;SDS011;30245;51.966;6.292;2023-02-19T02:41:41;16.57;;;13.37;;
44536;SDS011;30245;51.966;6.292;2023-02-19T02:44:08;18.10;;;9.95;;
44536;SDS011;30245;51.966;6.292;2023-02-19T02:46:34;17.87;;;9.60;;
44536;SDS011;30245;51.966;6.292;2023-02-19T02:49:02;21.23;;;9.20;;
44536;SDS011;30245;51.966;6.292;2023-02-19T02:51:33;13.03;;;8.97;;
44536;SDS011;30245;51.966;6.292;2023-02-19T02:54:05;18.30;;;9.30;;
44536;SDS011;30245;51.966;6.292;2023-02-19T02:56:54;13.53;;;8.40;;
44536;SDS011;30245;51.966;6.292;2023-02-19T02:59:22;17.73;;;9.17;;
44536;SDS011;30245;51.966;6.292;2023-02-19T03:01:54;14.77;;;8.23;;
44536;SDS011;30245;51.966;6.292;2023-02-19T03:07:40;18.80;;;8.07;;
44536;SDS011;30245;51.966;6.292;2023-02-19T03:10:10;20.37;;;8.53;;
44536;SDS011;30245;51.966;6.292;2023-02-19T03:12:39;11.97;;;5.40;;
44536;SDS011;30245;51.966;6.292;2023-02-19T03:15:26;16.70;;;5.73;;
44536;SDS011;30245;51.966;6.292;2023-02-19T03:18:16;14.20;;;7.63;;
44536;SDS011;30245;51.966;6.292;2023-02-19T03:21:01;15.37;;;6.07;;
44536;SDS011;30245;51.966;6.292;2023-02-19T03:23:30;14.23;;;5.97;;
44536;SDS011;30245;51.966;6.292;2023-02-19T03:26:16;17.87;;;5.97;;
44536;SDS011;30245;51.966;6.292;2023-02-19T03:28:43;12.03;;;6.53;;
44536;SDS011;30245;51.966;6.292;2023-02-19T03:31:30;13.90;;;5.63;;
44536;SDS011;30245;51.966;6.292;2023-02-19T03:34:01;14.77;;;7.23;;
44536;SDS011;30245;51.966;6.292;2023-02-19T03:36:33;12.20;;;5.37;;
44536;SDS011;30245;51.966;6.292;2023-02-19T03:39:03;10.37;;;4.80;;
44536;SDS011;30245;51.966;6.292;2023-02-19T03:44:16;14.63;;;5.43;;
44536;SDS011;30245;51.966;6.292;2023-02-19T03:49:34;7.83;;;4.90;;
44536;SDS011;30245;51.966;6.292;2023-02-19T03:52:24;8.37;;;4.80;;
44536;SDS011;30245;51.966;6.292;2023-02-19T03:55:02;11.60;;;5.07;;
44536;SDS011;30245;51.966;6.292;2023-02-19T03:57:41;14.93;;;5.27;;
44536;SDS011;30245;51.966;6.292;2023-02-19T04:00:12;18.85;;;3.78;;
44536;SDS011;30245;51.966;6.292;2023-02-19T04:03:28;7.33;;;3.83;;
44536;SDS011;30245;51.966;6.292;2023-02-19T04:05:40;8.43;;;4.03;;
44536;SDS011;30245;51.966;6.292;2023-02-19T04:08:27;9.95;;;4.65;;
44536;SDS011;30245;51.966;6.292;2023-02-19T04:10:55;7.07;;;3.13;;
44536;SDS011;30245;51.966;6.292;2023-02-19T04:13:31;4.45;;;3.45;;
44536;SDS011;30245;51.966;6.292;2023-02-19T04:16:20;8.53;;;3.57;;
44536;SDS011;30245;51.966;6.292;2023-02-19T04:21:16;10.63;;;3.58;;
44536;SDS011;30245;51.966;6.292;2023-02-19T04:23:44;7.20;;;2.87;;
44536;SDS011;30245;51.966;6.292;2023-02-19T04:26:10;5.87;;;2.87;;
44536;SDS011;30245;51.966;6.292;2023-02-19T04:28:37;5.80;;;3.47;;
44536;SDS011;30245;51.966;6.292;2023-02-19T04:31:04;7.83;;;3.33;;
44536;SDS011;30245;51.966;6.292;2023-02-19T04:33:29;5.07;;;2.90;;
44536;SDS011;30245;51.966;6.292;2023-02-19T04:35:55;6.87;;;2.40;;
44536;SDS011;30245;51.966;6.292;2023-02-19T04:38:21;7.97;;;3.63;;
44536;SDS011;30245;51.966;6.292;2023-02-19T04:40:46;8.77;;;4.17;;
44536;SDS011;30245;51.966;6.292;2023-02-19T04:43:12;8.93;;;3.57;;
44536;SDS011;30245;51.966;6.292;2023-02-19T04:45:38;10.27;;;3.83;;
44536;SDS011;30245;51.966;6.292;2023-02-19T04:48:04;5.83;;;2.53;;
44536;SDS011;30245;51.966;6.292;2023-02-19T04:50:29;12.50;;;3.30;;
44536;SDS011;30245;51.966;6.292;2023-02-19T04:52:55;4.67;;;2.37;;
44536;SDS011;30245;51.966;6.292;2023-02-19T04:55:21;5.60;;;2.50;;
44536;SDS011;30245;51.966;6.292;2023-02-19T04:57:47;6.93;;;2.83;;
44536;SDS011;30245;51.966;6.292;2023-02-19T05:00:13;5.07;;;1.97;;
44536;SDS011;30245;51.966;6.292;2023-02-19T05:02:38;4.90;;;2.63;;
44536;SDS011;30245;51.966;6.292;2023-02-19T05:05:04;3.93;;;2.90;;
44536;SDS011;30245;51.966;6.292;2023-02-19T05:07:30;3.87;;;2.07;;
44536;SDS011;30245;51.966;6.292;2023-02-19T05:09:55;6.70;;;2.47;;
44536;SDS011;30245;51.966;6.292;2023-02-19T05:12:22;9.50;;;2.40;;
44536;SDS011;30245;51.966;6.292;2023-02-19T05:14:47;5.30;;;1.63;;
44536;SDS011;30245;51.966;6.292;2023-02-19T05:17:13;4.07;;;1.80;;
44536;SDS011;30245;51.966;6.292;2023-02-19T05:19:38;8.03;;;2.93;;
44536;SDS011;30245;51.966;6.292;2023-02-19T05:22:04;5.30;;;1.90;;
44536;SDS011;30245;51.966;6.292;2023-02-19T05:24:30;4.37;;;2.03;;
44536;SDS011;30245;51.966;6.292;2023-02-19T05:26:55;4.53;;;1.83;;
44536;SDS011;30245;51.966;6.292;2023-02-19T05:29:21;6.90;;;2.17;;
44536;SDS011;30245;51.966;6.292;2023-02-19T05:31:46;5.27;;;2.20;;
44536;SDS011;30245;51.966;6.292;2023-02-19T05:34:13;5.40;;;1.57;;
44536;SDS011;30245;51.966;6.292;2023-02-19T05:36:38;6.30;;;2.23;;
44536;SDS011;30245;51.966;6.292;2023-02-19T05:39:04;4.20;;;1.33;;
44536;SDS011;30245;51.966;6.292;2023-02-19T05:41:31;5.00;;;2.43;;
44536;SDS011;30245;51.966;6.292;2023-02-19T05:43:57;4.30;;;2.37;;
44536;SDS011;30245;51.966;6.292;2023-02-19T05:46:23;6.70;;;2.00;;
44536;SDS011;30245;51.966;6.292;2023-02-19T05:48:51;2.40;;;1.42;;
44536;SDS011;30245;51.966;6.292;2023-02-19T05:51:19;6.87;;;2.73;;
44536;SDS011;30245;51.966;6.292;2023-02-19T05:53:46;4.18;;;2.42;;
44536;SDS011;30245;51.966;6.292;2023-02-19T05:58:59;5.63;;;3.03;;
44536;SDS011;30245;51.966;6.292;2023-02-19T06:01:28;5.43;;;2.93;;
44536;SDS011;30245;51.966;6.292;2023-02-19T06:03:54;5.87;;;3.47;;
44536;SDS011;30245;51.966;6.292;2023-02-19T06:06:20;5.40;;;3.53;;
44536;SDS011;30245;51.966;6.292;2023-02-19T06:08:47;4.97;;;3.23;;
44536;SDS011;30245;51.966;6.292;2023-02-19T06:11:17;10.80;;;4.40;;
44536;SDS011;30245;51.966;6.292;2023-02-19T06:13:43;4.57;;;3.83;;
44536;SDS011;30245;51.966;6.292;2023-02-19T06:16:09;5.43;;;4.93;;
44536;SDS011;30245;51.966;6.292;2023-02-19T06:18:35;7.80;;;4.83;;
44536;SDS011;30245;51.966;6.292;2023-02-19T06:21:05;7.43;;;3.73;;
44536;SDS011;30245;51.966;6.292;2023-02-19T06:23:32;6.57;;;3.77;;
44536;SDS011;30245;51.966;6.292;2023-02-19T06:26:31;5.20;;;3.83;;
44536;SDS011;30245;51.966;6.292;2023-02-19T06:28:50;7.77;;;2.63;;
44536;SDS011;30245;51.966;6.292;2023-02-19T06:31:18;4.50;;;2.37;;
44536;SDS011;30245;51.966;6.292;2023-02-19T06:33:45;4.47;;;2.90;;
44536;SDS011;30245;51.966;6.292;2023-02-19T06:36:12;2.03;;;1.60;;
44536;SDS011;30245;51.966;6.292;2023-02-19T06:38:39;4.80;;;2.45;;
44536;SDS011;30245;51.966;6.292;2023-02-19T06:41:05;8.57;;;2.57;;
44536;SDS011;30245;51.966;6.292;2023-02-19T06:43:32;3.57;;;2.57;;
44536;SDS011;30245;51.966;6.292;2023-02-19T06:45:58;2.87;;;1.87;;
44536;SDS011;30245;51.966;6.292;2023-02-19T06:48:28;4.23;;;2.40;;
44536;SDS011;30245;51.966;6.292;2023-02-19T06:50:54;6.67;;;2.97;;
44536;SDS011;30245;51.966;6.292;2023-02-19T06:53:20;3.00;;;2.07;;
44536;SDS011;30245;51.966;6.292;2023-02-19T06:58:21;2.97;;;1.13;;
44536;SDS011;30245;51.966;6.292;2023-02-19T07:00:47;2.33;;;1.70;;
44536;SDS011;30245;51.966;6.292;2023-02-19T07:03:12;5.60;;;1.70;;
44536;SDS011;30245;51.966;6.292;2023-02-19T07:05:38;3.73;;;1.37;;
44536;SDS011;30245;51.966;6.292;2023-02-19T07:08:03;4.03;;;1.60;;
44536;SDS011;30245;51.966;6.292;2023-02-19T07:10:29;3.60;;;1.67;;
44536;SDS011;30245;51.966;6.292;2023-02-19T07:12:54;4.47;;;1.93;;
44536;SDS011;30245;51.966;6.292;2023-02-19T07:15:20;4.70;;;1.60;;
44536;SDS011;30245;51.966;6.292;2023-02-19T07:17:46;4.50;;;1.47;;
44536;SDS011;30245;51.966;6.292;2023-02-19T07:20:11;1.50;;;0.90;;
44536;SDS011;30245;51.966;6.292;2023-02-19T07:22:37;4.87;;;1.47;;
44536;SDS011;30245;51.966;6.292;2023-02-19T07:25:03;3.40;;;0.83;;
44536;SDS011;30245;51.966;6.292;2023-02-19T07:27:29;4.07;;;1.20;;
44536;SDS011;30245;51.966;6.292;2023-02-19T07:29:54;3.63;;;1.33;;
44536;SDS011;30245;51.966;6.292;2023-02-19T07:32:20;2.67;;;1.30;;
44536;SDS011;30245;51.966;6.292;2023-02-19T07:34:46;2.27;;;0.97;;
44536;SDS011;30245;51.966;6.292;2023-02-19T07:37:11;2.70;;;1.00;;
44536;SDS011;30245;51.966;6.292;2023-02-19T07:39:37;1.50;;;1.00;;
44536;SDS011;30245;51.966;6.292;2023-02-19T07:42:02;2.47;;;1.53;;
44536;SDS011;30245;51.966;6.292;2023-02-19T07:44:28;2.17;;;1.30;;
44536;SDS011;30245;51.966;6.292;2023-02-19T07:46:53;4.13;;;1.90;;
44536;SDS011;30245;51.966;6.292;2023-02-19T07:49:19;3.53;;;1.50;;
44536;SDS011;30245;51.966;6.292;2023-02-19T07:51:45;4.47;;;2.60;;
44536;SDS011;30245;51.966;6.292;2023-02-19T07:54:10;5.60;;;2.23;;
44536;SDS011;30245;51.966;6.292;2023-02-19T07:56:36;3.87;;;1.47;;
44536;SDS011;30245;51.966;6.292;2023-02-19T07:59:01;3.23;;;2.30;;
44536;SDS011;30245;51.966;6.292;2023-02-19T08:01:27;4.20;;;2.47;;
44536;SDS011;30245;51.966;6.292;2023-02-19T08:04:12;5.30;;;2.53;;
44536;SDS011;30245;51.966;6.292;2023-02-19T08:06:40;5.63;;;2.20;;
44536;SDS011;30245;51.966;6.292;2023-02-19T08:09:06;6.23;;;2.33;;
44536;SDS011;30245;51.966;6.292;2023-02-19T08:11:32;4.23;;;2.87;;
44536;SDS011;30245;51.966;6.292;2023-02-19T08:14:16;7.10;;;2.93;;
44536;SDS011;30245;51.966;6.292;2023-02-19T08:16:51;5.67;;;3.30;;
44536;SDS011;30245;51.966;6.292;2023-02-19T08:19:17;7.43;;;2.90;;
44536;SDS011;30245;51.966;6.292;2023-02-19T08:21:43;4.50;;;2.93;;
44536;SDS011;30245;51.966;6.292;2023-02-19T08:24:09;6.33;;;2.67;;
44536;SDS011;30245;51.966;6.292;2023-02-19T08:26:35;4.87;;;3.80;;
44536;SDS011;30245;51.966;6.292;2023-02-19T08:29:01;4.47;;;2.77;;
44536;SDS011;30245;51.966;6.292;2023-02-19T08:31:27;7.27;;;4.33;;
44536;SDS011;30245;51.966;6.292;2023-02-19T08:33:53;6.30;;;3.37;;
44536;SDS011;30245;51.966;6.292;2023-02-19T08:36:19;10.97;;;5.60;;
44536;SDS011;30245;51.966;6.292;2023-02-19T08:38:44;9.17;;;4.03;;
44536;SDS011;30245;51.966;6.292;2023-02-19T08:41:10;4.70;;;4.13;;
44536;SDS011;30245;51.966;6.292;2023-02-19T08:43:41;11.90;;;3.50;;
44536;SDS011;30245;51.966;6.292;2023-02-19T08:46:07;9.23;;;3.23;;
44536;SDS011;30245;51.966;6.292;2023-02-19T08:48:34;6.53;;;2.77;;
44536;SDS011;30245;51.966;6.292;2023-02-19T08:51:01;4.77;;;2.83;;
44536;SDS011;30245;51.966;6.292;2023-02-19T08:53:29;9.57;;;3.95;;
44536;SDS011;30245;51.966;6.292;2023-02-19T08:55:55;11.33;;;5.00;;
44536;SDS011;30245;51.966;6.292;2023-02-19T08:58:21;7.90;;;4.10;;
44536;SDS011;30245;51.966;6.292;2023-02-19T09:00:49;10.43;;;4.10;;
44536;SDS011;30245;51.966;6.292;2023-02-19T09:03:14;7.37;;;5.23;;
44536;SDS011;30245;51.966;6.292;2023-02-19T09:05:40;10.00;;;4.77;;
44536;SDS011;30245;51.966;6.292;2023-02-19T09:08:05;9.97;;;4.53;;
44536;SDS011;30245;51.966;6.292;2023-02-19T09:10:31;9.27;;;5.13;;
44536;SDS011;30245;51.966;6.292;2023-02-19T09:12:57;12.20;;;6.70;;
44536;SDS011;30245;51.966;6.292;2023-02-19T09:15:22;11.03;;;6.50;;
44536;SDS011;30245;51.966;6.292;2023-02-19T09:17:51;11.37;;;5.80;;
44536;SDS011;30245;51.966;6.292;2023-02-19T09:22:42;8.93;;;5.80;;
44536;SDS011;30245;51.966;6.292;2023-02-19T09:25:08;6.40;;;5.63;;
44536;SDS011;30245;51.966;6.292;2023-02-19T09:27:34;6.87;;;5.37;;
44536;SDS011;30245;51.966;6.292;2023-02-19T09:29:59;7.83;;;5.90;;
44536;SDS011;30245;51.966;6.292;2023-02-19T09:32:25;11.23;;;4.67;;
44536;SDS011;30245;51.966;6.292;2023-02-19T09:34:53;6.68;;;5.25;;
44536;SDS011;30245;51.966;6.292;2023-02-19T09:37:19;7.00;;;4.57;;
44536;SDS011;30245;51.966;6.292;2023-02-19T09:39:48;5.70;;;3.63;;
44536;SDS011;30245;51.966;6.292;2023-02-19T09:42:15;7.70;;;3.90;;
44536;SDS011;30245;51.966;6.292;2023-02-19T09:44:51;3.60;;;3.20;;
44536;SDS011;30245;51.966;6.292;2023-02-19T09:47:20;3.83;;;2.83;;
44536;SDS011;30245;51.966;6.292;2023-02-19T09:49:49;7.50;;;4.50;;
44536;SDS011;30245;51.966;6.292;2023-02-19T09:55:08;7.67;;;3.60;;
44536;SDS011;30245;51.966;6.292;2023-02-19T09:57:37;5.03;;;3.97;;
44536;SDS011;30245;51.966;6.292;2023-02-19T10:02:35;5.00;;;1.90;;
44536;SDS011;30245;51.966;6.292;2023-02-19T10:05:02;4.47;;;2.50;;
44536;SDS011;30245;51.966;6.292;2023-02-19T10:07:39;4.73;;;2.07;;
44536;SDS011;30245;51.966;6.292;2023-02-19T10:15:28;3.37;;;1.60;;
44536;SDS011;30245;51.966;6.292;2023-02-19T10:17:50;3.07;;;1.30;;
44536;SDS011;30245;51.966;6.292;2023-02-19T10:20:19;2.40;;;1.40;;
44536;SDS011;30245;51.966;6.292;2023-02-19T10:22:56;7.07;;;1.90;;
44536;SDS011;30245;51.966;6.292;2023-02-19T10:25:25;3.17;;;1.20;;
44536;SDS011;30245;51.966;6.292;2023-02-19T10:27:52;0.90;;;0.40;;
44536;SDS011;30245;51.966;6.292;2023-02-19T10:30:22;1.00;;;0.50;;
44536;SDS011;30245;51.966;6.292;2023-02-19T10:35:37;0.50;;;0.20;;
44536;SDS011;30245;51.966;6.292;2023-02-19T10:38:16;0.73;;;0.30;;
44536;SDS011;30245;51.966;6.292;2023-02-19T10:40:44;1.70;;;0.30;;
44536;SDS011;30245;51.966;6.292;2023-02-19T10:43:19;0.97;;;0.40;;
44536;SDS011;30245;51.966;6.292;2023-02-19T10:45:55;0.70;;;0.37;;
44536;SDS011;30245;51.966;6.292;2023-02-19T10:48:22;0.53;;;0.20;;
44536;SDS011;30245;51.966;6.292;2023-02-19T10:51:09;1.90;;;0.50;;
44536;SDS011;30245;51.966;6.292;2023-02-19T10:53:44;0.80;;;0.40;;
44536;SDS011;30245;51.966;6.292;2023-02-19T10:56:15;1.20;;;0.47;;
44536;SDS011;30245;51.966;6.292;2023-02-19T10:58:52;0.73;;;0.30;;
44536;SDS011;30245;51.966;6.292;2023-02-19T11:01:23;0.60;;;0.30;;
44536;SDS011;30245;51.966;6.292;2023-02-19T11:04:01;1.23;;;0.20;;
44536;SDS011;30245;51.966;6.292;2023-02-19T11:06:41;1.57;;;0.30;;
44536;SDS011;30245;51.966;6.292;2023-02-19T11:09:18;0.80;;;0.30;;
44536;SDS011;30245;51.966;6.292;2023-02-19T11:11:49;1.10;;;0.40;;
44536;SDS011;30245;51.966;6.292;2023-02-19T11:14:17;2.17;;;0.30;;
44536;SDS011;30245;51.966;6.292;2023-02-19T11:16:46;0.65;;;0.20;;
44536;SDS011;30245;51.966;6.292;2023-02-19T11:19:21;0.87;;;0.30;;
44536;SDS011;30245;51.966;6.292;2023-02-19T11:21:52;1.10;;;0.50;;
44536;SDS011;30245;51.966;6.292;2023-02-19T11:24:36;0.73;;;0.30;;
44536;SDS011;30245;51.966;6.292;2023-02-19T11:27:05;1.10;;;0.30;;
44536;SDS011;30245;51.966;6.292;2023-02-19T11:29:38;1.00;;;0.40;;
44536;SDS011;30245;51.966;6.292;2023-02-19T11:34:44;0.83;;;0.30;;
44536;SDS011;30245;51.966;6.292;2023-02-19T11:37:14;0.70;;;0.33;;
44536;SDS011;30245;51.966;6.292;2023-02-19T11:39:45;0.87;;;0.40;;
44536;SDS011;30245;51.966;6.292;2023-02-19T11:53:39;0.70;;;0.20;;
44536;SDS011;30245;51.966;6.292;2023-02-19T11:56:17;0.90;;;0.50;;
44536;SDS011;30245;51.966;6.292;2023-02-19T11:58:58;4.90;;;0.67;;
44536;SDS011;30245;51.966;6.292;2023-02-19T12:12:43;0.70;;;0.30;;
44536;SDS011;30245;51.966;6.292;2023-02-19T12:20:44;0.80;;;0.30;;
44536;SDS011;30245;51.966;6.292;2023-02-19T12:31:49;0.60;;;0.20;;
44536;SDS011;30245;51.966;6.292;2023-02-19T12:37:25;1.77;;;1.07;;
44536;SDS011;30245;51.966;6.292;2023-02-19T12:40:23;0.80;;;0.30;;
44536;SDS011;30245;51.966;6.292;2023-02-19T12:43:20;1.00;;;0.60;;
44536;SDS011;30245;51.966;6.292;2023-02-19T12:50:52;0.83;;;0.43;;
44536;SDS011;30245;51.966;6.292;2023-02-19T12:53:45;1.10;;;0.60;;
44536;SDS011;30245;51.966;6.292;2023-02-19T12:56:25;2.13;;;0.50;;
44536;SDS011;30245;51.966;6.292;2023-02-19T12:58:54;2.63;;;0.43;;
44536;SDS011;30245;51.966;6.292;2023-02-19T13:01:27;0.83;;;0.50;;
44536;SDS011;30245;51.966;6.292;2023-02-19T13:04:19;1.10;;;0.50;;
44536;SDS011;30245;51.966;6.292;2023-02-19T13:07:09;1.00;;;0.47;;
44536;SDS011;30245;51.966;6.292;2023-02-19T13:10:02;0.80;;;0.40;;
44536;SDS011;30245;51.966;6.292;2023-02-19T13:12:28;0.93;;;0.40;;
44536;SDS011;30245;51.966;6.292;2023-02-19T13:15:06;0.70;;;0.40;;
44536;SDS011;30245;51.966;6.292;2023-02-19T13:17:51;1.00;;;0.40;;
44536;SDS011;30245;51.966;6.292;2023-02-19T13:28:46;1.20;;;0.40;;
44536;SDS011;30245;51.966;6.292;2023-02-19T13:36:56;0.53;;;0.30;;
44536;SDS011;30245;51.966;6.292;2023-02-19T13:39:23;0.87;;;0.50;;
44536;SDS011;30245;51.966;6.292;2023-02-19T13:41:49;0.70;;;0.33;;
44536;SDS011;30245;51.966;6.292;2023-02-19T13:44:32;0.70;;;0.40;;
44536;SDS011;30245;51.966;6.292;2023-02-19T13:46:59;0.70;;;0.40;;
44536;SDS011;30245;51.966;6.292;2023-02-19T13:52:00;0.80;;;0.40;;
44536;SDS011;30245;51.966;6.292;2023-02-19T13:54:46;1.03;;;0.47;;
44536;SDS011;30245;51.966;6.292;2023-02-19T13:59:43;0.90;;;0.40;;
44536;SDS011;30245;51.966;6.292;2023-02-19T14:02:11;0.63;;;0.40;;
44536;SDS011;30245;51.966;6.292;2023-02-19T14:04:59;0.77;;;0.30;;
44536;SDS011;30245;51.966;6.292;2023-02-19T14:07:50;0.70;;;0.50;;
44536;SDS011;30245;51.966;6.292;2023-02-19T14:13:55;3.67;;;1.73;;
44536;SDS011;30245;51.966;6.292;2023-02-19T14:19:02;3.33;;;0.88;;
44536;SDS011;30245;51.966;6.292;2023-02-19T14:21:38;1.43;;;0.93;;
44536;SDS011;30245;51.966;6.292;2023-02-19T14:24:05;1.77;;;0.60;;
44536;SDS011;30245;51.966;6.292;2023-02-19T14:26:36;1.03;;;0.50;;
44536;SDS011;30245;51.966;6.292;2023-02-19T14:29:03;1.60;;;0.63;;
44536;SDS011;30245;51.966;6.292;2023-02-19T14:31:33;1.13;;;0.50;;
44536;SDS011;30245;51.966;6.292;2023-02-19T14:34:04;1.50;;;0.70;;
44536;SDS011;30245;51.966;6.292;2023-02-19T14:39:24;1.33;;;0.60;;
44536;SDS011;30245;51.966;6.292;2023-02-19T14:41:59;5.73;;;1.30;;
44536;SDS011;30245;51.966;6.292;2023-02-19T14:44:56;1.47;;;0.60;;
44536;SDS011;30245;51.966;6.292;2023-02-19T14:47:26;2.07;;;1.03;;
44536;SDS011;30245;51.966;6.292;2023-02-19T14:52:42;2.10;;;0.63;;
44536;SDS011;30245;51.966;6.292;2023-02-19T14:55:31;2.40;;;0.67;;
44536;SDS011;30245;51.966;6.292;2023-02-19T14:58:02;1.00;;;0.40;;
44536;SDS011;30245;51.966;6.292;2023-02-19T15:00:37;1.87;;;0.50;;
44536;SDS011;30245;51.966;6.292;2023-02-19T15:03:05;0.90;;;0.40;;
44536;SDS011;30245;51.966;6.292;2023-02-19T15:05:52;1.30;;;0.50;;
44536;SDS011;30245;51.966;6.292;2023-02-19T15:08:21;1.30;;;0.40;;
44536;SDS011;30245;51.966;6.292;2023-02-19T15:10:53;1.70;;;0.50;;
44536;SDS011;30245;51.966;6.292;2023-02-19T15:13:21;0.90;;;0.50;;
44536;SDS011;30245;51.966;6.292;2023-02-19T15:15:50;2.80;;;1.00;;
44536;SDS011;30245;51.966;6.292;2023-02-19T15:18:18;1.70;;;0.70;;
44536;SDS011;30245;51.966;6.292;2023-02-19T15:20:49;3.50;;;1.00;;
44536;SDS011;30245;51.966;6.292;2023-02-19T15:23:22;2.50;;;1.20;;
44536;SDS011;30245;51.966;6.292;2023-02-19T15:25:48;2.70;;;0.93;;
44536;SDS011;30245;51.966;6.292;2023-02-19T15:30:44;2.77;;;0.80;;
44536;SDS011;30245;51.966;6.292;2023-02-19T15:33:14;3.93;;;0.83;;
44536;SDS011;30245;51.966;6.292;2023-02-19T15:35:41;1.40;;;0.67;;
44536;SDS011;30245;51.966;6.292;2023-02-19T15:38:16;2.27;;;0.70;;
44536;SDS011;30245;51.966;6.292;2023-02-19T15:40:45;1.10;;;0.40;;
44536;SDS011;30245;51.966;6.292;2023-02-19T15:45:55;1.40;;;0.70;;
44536;SDS011;30245;51.966;6.292;2023-02-19T15:48:30;1.17;;;0.57;;
44536;SDS011;30245;51.966;6.292;2023-02-19T15:51:24;1.97;;;0.43;;
44536;SDS011;30245;51.966;6.292;2023-02-19T15:54:35;3.23;;;0.40;;
44536;SDS011;30245;51.966;6.292;2023-02-19T15:57:12;1.20;;;0.43;;
44536;SDS011;30245;51.966;6.292;2023-02-19T15:59:43;1.43;;;0.70;;
44536;SDS011;30245;51.966;6.292;2023-02-19T16:02:16;0.83;;;0.40;;
44536;SDS011;30245;51.966;6.292;2023-02-19T16:04:42;2.47;;;0.70;;
44536;SDS011;30245;51.966;6.292;2023-02-19T16:07:22;1.40;;;0.70;;
44536;SDS011;30245;51.966;6.292;2023-02-19T16:10:25;1.17;;;0.50;;
44536;SDS011;30245;51.966;6.292;2023-02-19T16:12:55;2.23;;;0.40;;
44536;SDS011;30245;51.966;6.292;2023-02-19T16:15:22;2.40;;;0.73;;
44536;SDS011;30245;51.966;6.292;2023-02-19T16:17:48;2.83;;;0.80;;
44536;SDS011;30245;51.966;6.292;2023-02-19T16:20:25;2.77;;;0.73;;
44536;SDS011;30245;51.966;6.292;2023-02-19T16:23:11;1.50;;;0.70;;
44536;SDS011;30245;51.966;6.292;2023-02-19T16:25:41;2.50;;;0.67;;
44536;SDS011;30245;51.966;6.292;2023-02-19T16:28:19;1.45;;;0.65;;
44536;SDS011;30245;51.966;6.292;2023-02-19T16:31:01;4.67;;;1.47;;
44536;SDS011;30245;51.966;6.292;2023-02-19T16:36:14;1.50;;;0.97;;
44536;SDS011;30245;51.966;6.292;2023-02-19T16:41:30;1.60;;;0.70;;
44536;SDS011;30245;51.966;6.292;2023-02-19T16:43:57;1.27;;;0.70;;
44536;SDS011;30245;51.966;6.292;2023-02-19T16:46:22;1.10;;;0.50;;
44536;SDS011;30245;51.966;6.292;2023-02-19T16:48:48;2.93;;;1.10;;
44536;SDS011;30245;51.966;6.292;2023-02-19T16:51:16;1.30;;;0.63;;
44536;SDS011;30245;51.966;6.292;2023-02-19T16:53:49;1.57;;;0.97;;
44536;SDS011;30245;51.966;6.292;2023-02-19T16:56:15;2.40;;;1.23;;
44536;SDS011;30245;51.966;6.292;2023-02-19T16:58:43;1.30;;;0.68;;
44536;SDS011;30245;51.966;6.292;2023-02-19T17:01:08;2.10;;;0.80;;
44536;SDS011;30245;51.966;6.292;2023-02-19T17:03:34;1.40;;;0.60;;
44536;SDS011;30245;51.966;6.292;2023-02-19T17:06:02;0.80;;;0.30;;
44536;SDS011;30245;51.966;6.292;2023-02-19T17:08:29;2.50;;;0.70;;
44536;SDS011;30245;51.966;6.292;2023-02-19T17:11:10;2.90;;;1.40;;
44536;SDS011;30245;51.966;6.292;2023-02-19T17:13:41;2.07;;;0.70;;
44536;SDS011;30245;51.966;6.292;2023-02-19T17:16:16;2.58;;;1.05;;